Haaltert, Belgium
Current Conditions -  °F | °C
As of 5:20 PM on Wednesday 28 Jan 2015 (Local Time) from EBBR Reporting Station
Light Rain Light Rain  
Wind Chill: 30°   Ceiling: 1600
Heat Index: 39°   Visibility: 6mi
Dew Point: 37°   Wind: 18mph
Humidity: 93%   Direction: 270°W
Pressure: 29.5"   Gusts: NA
Location:  50.91°N, 4°E
Report Text: EBBR 281620Z 27016KT 9999 -RA SCT012 BKN016 04/03 Q0999 RETS RETSGR NOSIG
Loading
Personal Weather Stations






























Interactive Weather Map New forecast layout! Learn more

10-Day Weather Forecast

Advertisements
Track Severe Weather on mobile